Aquadonna — A8TW9 — position and weather

sailwx.info

Track history (hours):
 
Tides and Currents Weather Stations Pressure Air Temp Water Temp Dewpoint Dewpoint Depression Visibility Wind Speed Wind Dir Waves Ship Positions

Aquadonna

Last reported at 2014-Nov-01 04:33 UTC. Time now 2014-Nov-01 04:52 UTC.
Position S 29°43' E 031°14'.

Length 280 m; draft 9.3 m.

Type: Cargo ship. MMSI: 636014449.

Date/timePositionNaut miles runAvg speedWind from/ knotsBaromVisibWave heightAir tempDewpointWater temp
2014-Nov-01 04:33S 29°43' E 031°14'0 0.0
2014-Nov-01 03:33S 29°43' E 031°14'0 0.0
2014-Nov-01 02:33S 29°43' E 031°14'0 0.0
2014-Nov-01 01:33S 29°43' E 031°14'0 0.0
2014-Nov-01 00:33S 29°43' E 031°14'0 0.0
2014-Oct-31 23:33S 29°43' E 031°14'0 0.0
2014-Oct-31 22:33S 29°43' E 031°14'0 0.0
2014-Oct-31 21:33S 29°43' E 031°14'0 0.0
2014-Oct-31 20:33S 29°43' E 031°14'0 0.0
2014-Oct-31 19:33S 29°43' E 031°14'0 0.0
2014-Oct-31 18:33S 29°43' E 031°14'0 0.0
2014-Oct-31 17:33S 29°43' E 031°14'0 0.0
2014-Oct-31 16:33S 29°43' E 031°14'0 0.0
2014-Oct-31 15:33S 29°43' E 031°14'0 0.0
2014-Oct-31 14:33S 29°43' E 031°14'0 0.0
2014-Oct-31 13:33S 29°43' E 031°14'0 0.2
2014-Oct-31 12:33S 29°43' E 031°14'5 5.4
2014-Oct-31 11:33S 29°48' E 031°15'8 7.8
2014-Oct-31 10:33S 29°49' E 031°24'9 9.2
2014-Oct-31 09:33S 29°45' E 031°34'7 6.8
2014-Oct-31 08:33S 29°42' E 031°41'  
Track history (hours):
 
Tides and Currents Weather Stations Pressure Air Temp Water Temp Dewpoint Dewpoint Depression Visibility Wind Speed Wind Dir Waves Ship Positions

Aquadonna

Last reported at 2014-Nov-01 04:33 UTC. Time now 2014-Nov-01 04:52 UTC.
Position S 29°43' E 031°14'.

Length 280 m; draft 9.3 m.

Type: Cargo ship. MMSI: 636014449.

Date/timePositionNaut miles runAvg speedWind from/ knotsBaromVisibWave heightAir tempDewpointWater temp
2014-Nov-01 04:33S 29°43' E 031°14'0 0.0
2014-Nov-01 03:33S 29°43' E 031°14'0 0.0
2014-Nov-01 02:33S 29°43' E 031°14'0 0.0
2014-Nov-01 01:33S 29°43' E 031°14'0 0.0
2014-Nov-01 00:33S 29°43' E 031°14'0 0.0
2014-Oct-31 23:33S 29°43' E 031°14'0 0.0
2014-Oct-31 22:33S 29°43' E 031°14'0 0.0
2014-Oct-31 21:33S 29°43' E 031°14'0 0.0
2014-Oct-31 20:33S 29°43' E 031°14'0 0.0
2014-Oct-31 19:33S 29°43' E 031°14'0 0.0
2014-Oct-31 18:33S 29°43' E 031°14'0 0.0
2014-Oct-31 17:33S 29°43' E 031°14'0 0.0
2014-Oct-31 16:33S 29°43' E 031°14'0 0.0
2014-Oct-31 15:33S 29°43' E 031°14'0 0.0
2014-Oct-31 14:33S 29°43' E 031°14'0 0.0
2014-Oct-31 13:33S 29°43' E 031°14'0 0.2
2014-Oct-31 12:33S 29°43' E 031°14'5 5.4
2014-Oct-31 11:33S 29°48' E 031°15'8 7.8
2014-Oct-31 10:33S 29°49' E 031°24'9 9.2
2014-Oct-31 09:33S 29°45' E 031°34'7 6.8
2014-Oct-31 08:33S 29°42' E 031°41'  

Dump ship's entire track history